AFR01P EGPH-LFBZ
Flight info
| Callsign | AFR01P |
|---|---|
| Flight time | 1h 56m |
| Altitude | 41000 |
| Route | GOSAM P600 FENIK L612 NAVSO DCT ADZOP DCT EGTOC DCT NOKIN N862 KARNO/N0478F400 DCT ALHUP DCT ABWIV DCT PACSE DCT SIDHO DCT TONQU/N0477F410 DCT MANIG DCT BADUR DCT KORER UM616 TUPAR DCT CNA DCT VAVIX/N0371F190 DCT MAGEC |
| Aircraft | A359/H-SDE2E3GHIJ3J4J5LM1ORWXY/LB1D1 |
Departure
| Time | 2026-04-19 23:02 |
|---|---|
| Airport | Edinburgh Airport (EGPH) |
Arrival
| Time | 2026-04-20 00:58 |
|---|---|
| Airport | Biarritz Pays Basque airport (LFBZ) |
| Time | Latitude | Longitude | Altitude | Speed | Heading |
|---|---|---|---|---|---|
| 2026-04-19 22:28 | 55.94974 | -3.36296 | 123 ft | 0 kts | 149° |
| 2026-04-19 22:53 | 55.94993 | -3.36317 | 117 ft | 4 kts | 149° |
| 2026-04-19 22:53 | 55.95013 | -3.36341 | 117 ft | 4 kts | 125° |
| 2026-04-19 22:54 | 55.95020 | -3.36382 | 117 ft | 4 kts | 82° |
| 2026-04-19 22:54 | 55.95016 | -3.36420 | 117 ft | 1 kts | 74° |
| 2026-04-19 22:58 | 55.95016 | -3.36419 | 117 ft | 1 kts | 73° |
| 2026-04-19 22:58 | 55.95029 | -3.36403 | 117 ft | 2 kts | 25° |
| 2026-04-19 22:58 | 55.95057 | -3.36400 | 119 ft | 6 kts | 1° |
| 2026-04-19 22:58 | 55.95106 | -3.36349 | 119 ft | 10 kts | 50° |
| 2026-04-19 22:59 | 55.95152 | -3.36228 | 117 ft | 13 kts | 57° |
| 2026-04-19 22:59 | 55.95207 | -3.36070 | 117 ft | 16 kts | 59° |
| 2026-04-19 22:59 | 55.95270 | -3.35877 | 117 ft | 20 kts | 60° |
| 2026-04-19 22:59 | 55.95344 | -3.35653 | 117 ft | 22 kts | 59° |
| 2026-04-19 23:00 | 55.95422 | -3.35426 | 118 ft | 2 kts | 43° |
| 2026-04-19 23:00 | 55.95449 | -3.35409 | 118 ft | 7 kts | 4° |
| 2026-04-19 23:00 | 55.95504 | -3.35456 | 117 ft | 11 kts | 332° |
| 2026-04-19 23:01 | 55.95558 | -3.35564 | 115 ft | 10 kts | 278° |
| 2026-04-19 23:01 | 55.95535 | -3.35660 | 116 ft | 18 kts | 242° |
| 2026-04-19 23:01 | 55.95310 | -3.36326 | 114 ft | 107 kts | 239° |
| 2026-04-19 23:01 | 55.94784 | -3.37840 | 287 ft | 168 kts | 238° |
| 2026-04-19 23:02 | 55.94148 | -3.39640 | 1202 ft | 175 kts | 240° |
| 2026-04-19 23:02 | 55.93513 | -3.41524 | 1956 ft | 183 kts | 243° |
| 2026-04-19 23:02 | 55.92852 | -3.43597 | 2340 ft | 202 kts | 243° |
| 2026-04-19 23:02 | 55.92084 | -3.45851 | 2718 ft | 222 kts | 240° |
| 2026-04-19 23:03 | 55.91221 | -3.48309 | 3050 ft | 245 kts | 240° |
| 2026-04-19 23:03 | 55.90466 | -3.51094 | 3654 ft | 253 kts | 256° |
| 2026-04-19 23:03 | 55.90096 | -3.54168 | 4434 ft | 255 kts | 262° |
| 2026-04-19 23:03 | 55.89794 | -3.57295 | 5235 ft | 258 kts | 262° |
| 2026-04-19 23:04 | 55.89488 | -3.60475 | 5799 ft | 261 kts | 261° |
| 2026-04-19 23:04 | 55.89174 | -3.63663 | 6007 ft | 262 kts | 261° |
| 2026-04-19 23:04 | 55.88863 | -3.66818 | 6023 ft | 262 kts | 261° |
| 2026-04-19 23:04 | 55.88540 | -3.70058 | 6160 ft | 263 kts | 261° |
| 2026-04-19 23:05 | 55.88215 | -3.73275 | 6325 ft | 264 kts | 261° |
| 2026-04-19 23:05 | 55.87889 | -3.76485 | 6343 ft | 263 kts | 261° |
| 2026-04-19 23:05 | 55.87564 | -3.79689 | 6340 ft | 263 kts | 261° |
| 2026-04-19 23:05 | 55.87352 | -3.81819 | 6334 ft | 263 kts | 261° |
| 2026-04-19 23:06 | 55.86931 | -3.86068 | 6342 ft | 263 kts | 261° |
| 2026-04-19 23:06 | 55.86611 | -3.89280 | 6343 ft | 263 kts | 261° |
| 2026-04-19 23:06 | 55.86290 | -3.92492 | 6347 ft | 263 kts | 261° |
| 2026-04-19 23:06 | 55.85969 | -3.95700 | 6333 ft | 263 kts | 260° |
| 2026-04-19 23:07 | 55.85646 | -3.98917 | 6349 ft | 264 kts | 260° |
| 2026-04-19 23:07 | 55.85321 | -4.02136 | 6341 ft | 264 kts | 260° |
| 2026-04-19 23:07 | 55.85086 | -4.04264 | 6344 ft | 265 kts | 258° |
| 2026-04-19 23:07 | 55.84515 | -4.07416 | 6343 ft | 265 kts | 247° |
| 2026-04-19 23:08 | 55.83605 | -4.10267 | 6341 ft | 266 kts | 235° |
| 2026-04-19 23:08 | 55.82441 | -4.12822 | 6343 ft | 266 kts | 230° |
| 2026-04-19 23:08 | 55.81236 | -4.15268 | 6346 ft | 266 kts | 230° |
| 2026-04-19 23:08 | 55.80014 | -4.17741 | 6347 ft | 266 kts | 230° |
| 2026-04-19 23:09 | 55.78740 | -4.20135 | 6353 ft | 267 kts | 223° |
| 2026-04-19 23:09 | 55.77314 | -4.22243 | 6527 ft | 268 kts | 218° |
| 2026-04-19 23:09 | 55.75795 | -4.24180 | 7137 ft | 270 kts | 216° |
| 2026-04-19 23:09 | 55.74214 | -4.26037 | 7865 ft | 275 kts | 212° |
| 2026-04-19 23:10 | 55.72427 | -4.27335 | 8529 ft | 284 kts | 195° |
| 2026-04-19 23:10 | 55.70434 | -4.27506 | 9168 ft | 292 kts | 172° |
| 2026-04-19 23:10 | 55.68475 | -4.26445 | 9883 ft | 298 kts | 157° |
| 2026-04-19 23:10 | 55.66585 | -4.24857 | 10509 ft | 305 kts | 151° |
| 2026-04-19 23:11 | 55.64685 | -4.22966 | 10826 ft | 322 kts | 149° |
| 2026-04-19 23:11 | 55.62715 | -4.20884 | 11125 ft | 338 kts | 148° |
| 2026-04-19 23:11 | 55.60655 | -4.18706 | 11564 ft | 349 kts | 149° |
| 2026-04-19 23:11 | 55.58543 | -4.16524 | 12137 ft | 355 kts | 149° |
| 2026-04-19 23:12 | 55.56386 | -4.14351 | 12762 ft | 359 kts | 150° |
| 2026-04-19 23:12 | 55.54193 | -4.12183 | 13393 ft | 363 kts | 150° |
| 2026-04-19 23:12 | 55.51968 | -4.10010 | 14018 ft | 367 kts | 150° |
| 2026-04-19 23:12 | 55.49721 | -4.07827 | 14596 ft | 371 kts | 150° |
| 2026-04-19 23:13 | 55.47450 | -4.05618 | 15190 ft | 374 kts | 150° |
| 2026-04-19 23:13 | 55.45156 | -4.03394 | 15749 ft | 378 kts | 150° |
| 2026-04-19 23:13 | 55.42842 | -4.01155 | 16327 ft | 381 kts | 150° |
| 2026-04-19 23:13 | 55.40505 | -3.98899 | 16894 ft | 385 kts | 150° |
| 2026-04-19 23:14 | 55.38150 | -3.96625 | 17466 ft | 388 kts | 150° |
| 2026-04-19 23:14 | 55.35772 | -3.94330 | 18025 ft | 392 kts | 150° |
| 2026-04-19 23:14 | 55.33375 | -3.92018 | 18593 ft | 395 kts | 150° |
| 2026-04-19 23:14 | 55.30955 | -3.89686 | 19069 ft | 399 kts | 150° |
| 2026-04-19 23:15 | 55.28509 | -3.87333 | 19536 ft | 403 kts | 150° |
| 2026-04-19 23:15 | 55.26045 | -3.84966 | 20062 ft | 404 kts | 150° |
| 2026-04-19 23:15 | 55.23594 | -3.82667 | 20614 ft | 406 kts | 153° |
| 2026-04-19 23:15 | 55.20976 | -3.80757 | 21080 ft | 410 kts | 160° |
| 2026-04-19 23:16 | 55.18271 | -3.79085 | 21477 ft | 415 kts | 162° |
| 2026-04-19 23:16 | 55.15518 | -3.77518 | 21919 ft | 418 kts | 163° |
| 2026-04-19 23:16 | 55.12724 | -3.75997 | 22381 ft | 422 kts | 163° |
| 2026-04-19 23:16 | 55.09913 | -3.74493 | 22828 ft | 425 kts | 163° |
| 2026-04-19 23:17 | 55.07077 | -3.72976 | 23291 ft | 428 kts | 163° |
| 2026-04-19 23:17 | 55.04210 | -3.71435 | 23725 ft | 432 kts | 163° |
| 2026-04-19 23:17 | 55.01331 | -3.69879 | 24140 ft | 435 kts | 163° |
| 2026-04-19 23:17 | 54.98432 | -3.68307 | 24531 ft | 438 kts | 163° |
| 2026-04-19 23:18 | 54.95510 | -3.66721 | 24922 ft | 441 kts | 163° |
| 2026-04-19 23:18 | 54.92568 | -3.65122 | 25235 ft | 446 kts | 164° |
| 2026-04-19 23:18 | 54.89589 | -3.63506 | 25576 ft | 449 kts | 164° |
| 2026-04-19 23:18 | 54.86600 | -3.61887 | 25995 ft | 452 kts | 164° |
| 2026-04-19 23:19 | 54.83590 | -3.60261 | 26404 ft | 454 kts | 164° |
| 2026-04-19 23:19 | 54.80563 | -3.58629 | 26812 ft | 457 kts | 164° |
| 2026-04-19 23:19 | 54.77510 | -3.56985 | 27227 ft | 460 kts | 164° |
| 2026-04-19 23:19 | 54.74443 | -3.55336 | 27651 ft | 463 kts | 164° |
| 2026-04-19 23:20 | 54.71352 | -3.53677 | 28080 ft | 467 kts | 164° |
| 2026-04-19 23:20 | 54.68242 | -3.52011 | 28494 ft | 470 kts | 164° |
| 2026-04-19 23:20 | 54.65105 | -3.50332 | 28919 ft | 474 kts | 165° |
| 2026-04-19 23:20 | 54.61946 | -3.48645 | 29352 ft | 477 kts | 165° |
| 2026-04-19 23:21 | 54.58764 | -3.46949 | 29782 ft | 480 kts | 165° |
| 2026-04-19 23:21 | 54.55562 | -3.45244 | 30205 ft | 483 kts | 165° |
| 2026-04-19 23:21 | 54.52341 | -3.43532 | 30581 ft | 487 kts | 165° |
| 2026-04-19 23:21 | 54.49089 | -3.41807 | 30923 ft | 490 kts | 165° |
| 2026-04-19 23:22 | 54.45818 | -3.40074 | 31249 ft | 494 kts | 165° |
| 2026-04-19 23:22 | 54.42523 | -3.38331 | 31497 ft | 498 kts | 166° |
| 2026-04-19 23:22 | 54.39189 | -3.36572 | 31793 ft | 503 kts | 165° |
| 2026-04-19 23:22 | 54.35837 | -3.34806 | 32109 ft | 505 kts | 166° |
| 2026-04-19 23:23 | 54.32470 | -3.33035 | 32436 ft | 509 kts | 166° |
| 2026-04-19 23:23 | 54.29070 | -3.31248 | 32739 ft | 512 kts | 166° |
| 2026-04-19 23:23 | 54.25656 | -3.29457 | 33016 ft | 515 kts | 166° |
| 2026-04-19 23:23 | 54.22222 | -3.27659 | 33300 ft | 518 kts | 166° |
| 2026-04-19 23:24 | 54.18734 | -3.26053 | 33511 ft | 519 kts | 172° |
| 2026-04-19 23:24 | 54.15164 | -3.25125 | 33694 ft | 521 kts | 177° |
| 2026-04-19 23:24 | 54.11554 | -3.24437 | 33978 ft | 522 kts | 179° |
| 2026-04-19 23:24 | 54.07935 | -3.23846 | 34268 ft | 524 kts | 179° |
| 2026-04-19 23:25 | 54.04294 | -3.23297 | 34519 ft | 527 kts | 179° |
| 2026-04-19 23:25 | 54.00640 | -3.22661 | 34758 ft | 531 kts | 175° |
| 2026-04-19 23:25 | 53.96996 | -3.21522 | 35052 ft | 532 kts | 172° |
| 2026-04-19 23:25 | 53.93376 | -3.20240 | 35414 ft | 531 kts | 171° |
| 2026-04-19 23:26 | 53.89769 | -3.18892 | 35802 ft | 530 kts | 171° |
| 2026-04-19 23:26 | 53.86179 | -3.17519 | 36204 ft | 528 kts | 170° |
| 2026-04-19 23:26 | 53.82608 | -3.16146 | 36599 ft | 526 kts | 170° |
| 2026-04-19 23:26 | 53.79044 | -3.14780 | 36978 ft | 524 kts | 170° |
| 2026-04-19 23:27 | 53.75492 | -3.13427 | 37365 ft | 523 kts | 170° |
| 2026-04-19 23:27 | 53.71944 | -3.12085 | 37798 ft | 520 kts | 169° |
| 2026-04-19 23:27 | 53.68433 | -3.10763 | 38317 ft | 516 kts | 169° |
| 2026-04-19 23:27 | 53.64974 | -3.09465 | 38613 ft | 516 kts | 169° |
| 2026-04-19 23:28 | 53.61426 | -3.08137 | 38921 ft | 516 kts | 169° |
| 2026-04-19 23:28 | 53.57973 | -3.06847 | 39199 ft | 514 kts | 169° |
| 2026-04-19 23:28 | 53.54486 | -3.05547 | 39472 ft | 513 kts | 169° |
| 2026-04-19 23:28 | 53.50999 | -3.04249 | 39718 ft | 512 kts | 169° |
| 2026-04-19 23:29 | 53.47523 | -3.02956 | 39946 ft | 511 kts | 169° |
| 2026-04-19 23:29 | 53.44052 | -3.01668 | 40173 ft | 511 kts | 169° |
| 2026-04-19 23:29 | 53.40590 | -3.00384 | 40393 ft | 510 kts | 169° |
| 2026-04-19 23:29 | 53.37126 | -2.99102 | 40600 ft | 509 kts | 169° |
| 2026-04-19 23:30 | 53.33669 | -2.97825 | 40800 ft | 509 kts | 169° |
| 2026-04-19 23:30 | 53.30212 | -2.96550 | 40987 ft | 508 kts | 169° |
| 2026-04-19 23:30 | 53.26761 | -2.95279 | 41174 ft | 508 kts | 169° |
| 2026-04-19 23:30 | 53.23313 | -2.94012 | 41320 ft | 508 kts | 169° |
| 2026-04-19 23:31 | 53.16359 | -2.91463 | 41349 ft | 515 kts | 169° |
| 2026-04-19 23:31 | 53.09310 | -2.89020 | 41347 ft | 517 kts | 174° |
| 2026-04-19 23:32 | 53.02167 | -2.88695 | 41348 ft | 513 kts | 184° |
| 2026-04-19 23:32 | 52.95035 | -2.89240 | 41343 ft | 513 kts | 186° |
| 2026-04-19 23:33 | 52.87929 | -2.90197 | 41349 ft | 511 kts | 190° |
| 2026-04-19 23:33 | 52.80886 | -2.91800 | 41349 ft | 511 kts | 191° |
| 2026-04-19 23:34 | 52.73846 | -2.93477 | 41349 ft | 511 kts | 191° |
| 2026-04-19 23:34 | 52.66754 | -2.94495 | 41353 ft | 513 kts | 186° |
| 2026-04-19 23:35 | 52.59615 | -2.95122 | 41348 ft | 513 kts | 185° |
| 2026-04-19 23:35 | 52.52480 | -2.95687 | 41347 ft | 513 kts | 185° |
| 2026-04-19 23:36 | 52.45347 | -2.96257 | 41343 ft | 513 kts | 185° |
| 2026-04-19 23:36 | 52.38219 | -2.96838 | 41348 ft | 513 kts | 185° |
| 2026-04-19 23:37 | 52.31090 | -2.97421 | 41340 ft | 512 kts | 185° |
| 2026-04-19 23:37 | 52.24034 | -2.97997 | 41331 ft | 511 kts | 186° |
| 2026-04-19 23:38 | 52.16954 | -2.98571 | 41348 ft | 508 kts | 186° |
| 2026-04-19 23:38 | 52.09902 | -2.99144 | 41329 ft | 507 kts | 186° |
| 2026-04-19 23:39 | 52.02847 | -2.99715 | 41325 ft | 507 kts | 186° |
| 2026-04-19 23:39 | 51.95812 | -3.00280 | 41332 ft | 505 kts | 186° |
| 2026-04-19 23:40 | 51.88799 | -3.00843 | 41327 ft | 503 kts | 186° |
| 2026-04-19 23:40 | 51.81842 | -3.01819 | 41320 ft | 501 kts | 191° |
| 2026-04-19 23:41 | 51.74954 | -3.03436 | 41311 ft | 500 kts | 192° |
| 2026-04-19 23:41 | 51.68087 | -3.05030 | 41321 ft | 498 kts | 192° |
| 2026-04-19 23:42 | 51.61221 | -3.06506 | 41316 ft | 498 kts | 191° |
| 2026-04-19 23:42 | 51.54372 | -3.07924 | 41321 ft | 498 kts | 191° |
| 2026-04-19 23:43 | 51.47496 | -3.09335 | 41313 ft | 496 kts | 191° |
| 2026-04-19 23:43 | 51.40656 | -3.10738 | 41319 ft | 495 kts | 191° |
| 2026-04-19 23:44 | 51.33815 | -3.12147 | 41320 ft | 495 kts | 191° |
| 2026-04-19 23:44 | 51.26983 | -3.13545 | 41307 ft | 495 kts | 191° |
| 2026-04-19 23:45 | 51.20159 | -3.14932 | 41314 ft | 494 kts | 191° |
| 2026-04-19 23:45 | 51.13345 | -3.16316 | 41312 ft | 493 kts | 191° |
| 2026-04-19 23:46 | 51.06534 | -3.17697 | 41310 ft | 493 kts | 191° |
| 2026-04-19 23:46 | 50.99720 | -3.19075 | 41312 ft | 494 kts | 191° |
| 2026-04-19 23:47 | 50.92905 | -3.20448 | 41315 ft | 494 kts | 191° |
| 2026-04-19 23:47 | 50.86091 | -3.21817 | 41309 ft | 494 kts | 191° |
| 2026-04-19 23:48 | 50.79277 | -3.23182 | 41303 ft | 493 kts | 191° |
| 2026-04-19 23:48 | 50.72524 | -3.24536 | 41304 ft | 492 kts | 191° |
| 2026-04-19 23:49 | 50.65726 | -3.25890 | 41304 ft | 492 kts | 191° |
| 2026-04-19 23:49 | 50.58940 | -3.27234 | 41288 ft | 490 kts | 190° |
| 2026-04-19 23:50 | 50.52182 | -3.28569 | 41305 ft | 489 kts | 190° |
| 2026-04-19 23:50 | 50.45438 | -3.29900 | 41289 ft | 488 kts | 191° |
| 2026-04-19 23:51 | 50.38681 | -3.31013 | 41291 ft | 491 kts | 184° |
| 2026-04-19 23:51 | 50.31833 | -3.30716 | 41292 ft | 492 kts | 180° |
| 2026-04-19 23:52 | 50.25001 | -3.30102 | 41291 ft | 492 kts | 179° |
| 2026-04-19 23:52 | 50.18168 | -3.29448 | 41290 ft | 492 kts | 180° |
| 2026-04-19 23:53 | 50.11333 | -3.28822 | 41284 ft | 491 kts | 180° |
| 2026-04-19 23:53 | 50.04513 | -3.28215 | 41277 ft | 491 kts | 180° |
| 2026-04-19 23:54 | 49.98850 | -3.27717 | 41274 ft | 491 kts | 180° |
| 2026-04-19 23:54 | 49.92031 | -3.27119 | 41267 ft | 491 kts | 180° |
| 2026-04-19 23:55 | 49.85222 | -3.26522 | 41273 ft | 490 kts | 180° |
| 2026-04-19 23:55 | 49.78414 | -3.25756 | 41275 ft | 492 kts | 174° |
| 2026-04-19 23:56 | 49.71656 | -3.23979 | 41270 ft | 493 kts | 172° |
| 2026-04-19 23:56 | 49.64907 | -3.22000 | 41268 ft | 493 kts | 172° |
| 2026-04-19 23:57 | 49.58169 | -3.20005 | 41269 ft | 493 kts | 172° |
| 2026-04-19 23:57 | 49.51421 | -3.18031 | 41263 ft | 493 kts | 172° |
| 2026-04-19 23:58 | 49.44677 | -3.16076 | 41261 ft | 493 kts | 172° |
| 2026-04-19 23:58 | 49.37927 | -3.14127 | 41262 ft | 493 kts | 172° |
| 2026-04-19 23:59 | 49.31182 | -3.12186 | 41263 ft | 493 kts | 172° |
| 2026-04-19 23:59 | 49.24474 | -3.10259 | 41264 ft | 493 kts | 172° |
| 2026-04-20 00:00 | 49.17721 | -3.08325 | 41263 ft | 494 kts | 173° |
| 2026-04-20 00:00 | 49.10962 | -3.06395 | 41260 ft | 494 kts | 173° |
| 2026-04-20 00:01 | 49.04194 | -3.04467 | 41252 ft | 494 kts | 173° |
| 2026-04-20 00:02 | 48.94058 | -3.01590 | 41254 ft | 494 kts | 173° |
| 2026-04-20 00:02 | 48.87301 | -2.99678 | 41254 ft | 494 kts | 173° |
| 2026-04-20 00:03 | 48.80545 | -2.97773 | 41249 ft | 494 kts | 173° |
| 2026-04-20 00:03 | 48.73791 | -2.95873 | 41242 ft | 494 kts | 173° |
| 2026-04-20 00:04 | 48.67109 | -2.93342 | 41238 ft | 496 kts | 167° |
| 2026-04-20 00:04 | 48.60477 | -2.90416 | 41234 ft | 497 kts | 166° |
| 2026-04-20 00:05 | 48.53857 | -2.87440 | 41238 ft | 497 kts | 166° |
| 2026-04-20 00:05 | 48.47230 | -2.84477 | 41243 ft | 496 kts | 167° |
| 2026-04-20 00:06 | 48.40647 | -2.81555 | 41236 ft | 496 kts | 167° |
| 2026-04-20 00:06 | 48.34020 | -2.78626 | 41235 ft | 497 kts | 167° |
| 2026-04-20 00:07 | 48.27391 | -2.75705 | 41223 ft | 497 kts | 167° |
| 2026-04-20 00:07 | 48.20756 | -2.72788 | 41224 ft | 497 kts | 167° |
| 2026-04-20 00:08 | 48.14119 | -2.69879 | 41222 ft | 497 kts | 167° |
| 2026-04-20 00:08 | 48.07468 | -2.66970 | 41216 ft | 498 kts | 167° |
| 2026-04-20 00:09 | 48.00821 | -2.64071 | 41209 ft | 498 kts | 167° |
| 2026-04-20 00:09 | 47.94166 | -2.61176 | 41210 ft | 498 kts | 167° |
| 2026-04-20 00:10 | 47.87512 | -2.58290 | 41202 ft | 498 kts | 167° |
| 2026-04-20 00:10 | 47.80856 | -2.55411 | 41188 ft | 498 kts | 167° |
| 2026-04-20 00:11 | 47.74204 | -2.52514 | 41182 ft | 499 kts | 165° |
| 2026-04-20 00:11 | 47.67965 | -2.47921 | 41183 ft | 507 kts | 146° |
| 2026-04-20 00:11 | 47.65318 | -2.44543 | 41189 ft | 510 kts | 135° |
| 2026-04-20 00:12 | 47.62888 | -2.40702 | 41186 ft | 511 kts | 134° |
| 2026-04-20 00:12 | 47.58228 | -2.32722 | 41181 ft | 513 kts | 132° |
| 2026-04-20 00:13 | 47.53609 | -2.24673 | 41183 ft | 513 kts | 132° |
| 2026-04-20 00:13 | 47.48946 | -2.16665 | 41179 ft | 513 kts | 133° |
| 2026-04-20 00:14 | 47.44262 | -2.08708 | 41180 ft | 513 kts | 133° |
| 2026-04-20 00:14 | 47.39561 | -2.00766 | 41182 ft | 513 kts | 133° |
| 2026-04-20 00:15 | 47.34860 | -1.92843 | 41175 ft | 514 kts | 133° |
| 2026-04-20 00:15 | 47.30155 | -1.84906 | 41159 ft | 514 kts | 133° |
| 2026-04-20 00:16 | 47.25443 | -1.76976 | 41157 ft | 514 kts | 133° |
| 2026-04-20 00:16 | 47.20724 | -1.69058 | 41157 ft | 514 kts | 133° |
| 2026-04-20 00:17 | 47.15930 | -1.61269 | 41148 ft | 513 kts | 139° |
| 2026-04-20 00:17 | 47.10693 | -1.54144 | 41149 ft | 513 kts | 140° |
| 2026-04-20 00:18 | 47.05372 | -1.47159 | 41153 ft | 513 kts | 141° |
| 2026-04-20 00:18 | 47.00040 | -1.40209 | 41150 ft | 513 kts | 141° |
| 2026-04-20 00:19 | 46.94713 | -1.33257 | 41146 ft | 513 kts | 141° |
| 2026-04-20 00:19 | 46.89387 | -1.26300 | 41152 ft | 513 kts | 141° |
| 2026-04-20 00:20 | 46.84058 | -1.19358 | 41153 ft | 513 kts | 140° |
| 2026-04-20 00:20 | 46.78717 | -1.12420 | 41152 ft | 514 kts | 141° |
| 2026-04-20 00:21 | 46.73371 | -1.05495 | 41153 ft | 514 kts | 141° |
| 2026-04-20 00:21 | 46.68023 | -0.98586 | 41146 ft | 514 kts | 141° |
| 2026-04-20 00:22 | 46.62666 | -0.91684 | 41139 ft | 514 kts | 141° |
| 2026-04-20 00:22 | 46.57343 | -0.84845 | 41140 ft | 514 kts | 141° |
| 2026-04-20 00:23 | 46.51989 | -0.77957 | 41137 ft | 514 kts | 141° |
| 2026-04-20 00:23 | 46.49314 | -0.74509 | 40892 ft | 515 kts | 141° |
| 2026-04-20 00:23 | 46.46627 | -0.71064 | 40234 ft | 515 kts | 142° |
| 2026-04-20 00:23 | 46.43785 | -0.67972 | 39972 ft | 508 kts | 150° |
| 2026-04-20 00:24 | 46.40698 | -0.65538 | 39736 ft | 503 kts | 160° |
| 2026-04-20 00:24 | 46.37445 | -0.63717 | 39503 ft | 500 kts | 165° |
| 2026-04-20 00:24 | 46.34151 | -0.62094 | 39253 ft | 500 kts | 166° |
| 2026-04-20 00:24 | 46.30844 | -0.60566 | 39024 ft | 499 kts | 167° |
| 2026-04-20 00:25 | 46.27530 | -0.59076 | 38795 ft | 499 kts | 167° |
| 2026-04-20 00:25 | 46.24212 | -0.57591 | 38514 ft | 499 kts | 167° |
| 2026-04-20 00:25 | 46.20895 | -0.56100 | 38227 ft | 500 kts | 167° |
| 2026-04-20 00:25 | 46.17574 | -0.54597 | 37947 ft | 501 kts | 167° |
| 2026-04-20 00:26 | 46.14245 | -0.53082 | 37643 ft | 501 kts | 167° |
| 2026-04-20 00:26 | 46.10924 | -0.51565 | 37363 ft | 502 kts | 167° |
| 2026-04-20 00:26 | 46.07594 | -0.50043 | 37097 ft | 502 kts | 167° |
| 2026-04-20 00:26 | 46.04259 | -0.48519 | 36842 ft | 503 kts | 167° |
| 2026-04-20 00:27 | 46.00921 | -0.46997 | 36568 ft | 504 kts | 167° |
| 2026-04-20 00:27 | 45.97580 | -0.45475 | 36306 ft | 505 kts | 167° |
| 2026-04-20 00:27 | 45.94227 | -0.43949 | 36031 ft | 505 kts | 167° |
| 2026-04-20 00:27 | 45.90878 | -0.42427 | 35768 ft | 504 kts | 167° |
| 2026-04-20 00:28 | 45.87543 | -0.40913 | 35511 ft | 502 kts | 167° |
| 2026-04-20 00:28 | 45.84216 | -0.39405 | 35252 ft | 501 kts | 167° |
| 2026-04-20 00:28 | 45.80903 | -0.37904 | 35024 ft | 499 kts | 167° |
| 2026-04-20 00:28 | 45.77637 | -0.36428 | 34772 ft | 497 kts | 167° |
| 2026-04-20 00:29 | 45.74299 | -0.34920 | 34503 ft | 495 kts | 167° |
| 2026-04-20 00:29 | 45.71024 | -0.33443 | 34268 ft | 492 kts | 167° |
| 2026-04-20 00:29 | 45.67737 | -0.32194 | 34027 ft | 485 kts | 175° |
| 2026-04-20 00:29 | 45.64419 | -0.31913 | 33750 ft | 473 kts | 189° |
| 2026-04-20 00:30 | 45.61183 | -0.32469 | 33480 ft | 466 kts | 194° |
| 2026-04-20 00:30 | 45.58037 | -0.33242 | 33211 ft | 464 kts | 196° |
| 2026-04-20 00:30 | 45.54880 | -0.34132 | 32926 ft | 460 kts | 197° |
| 2026-04-20 00:30 | 45.51753 | -0.35057 | 32651 ft | 458 kts | 197° |
| 2026-04-20 00:31 | 45.48644 | -0.35982 | 32390 ft | 456 kts | 197° |
| 2026-04-20 00:31 | 45.45544 | -0.36894 | 32123 ft | 454 kts | 197° |
| 2026-04-20 00:31 | 45.42454 | -0.37787 | 31866 ft | 452 kts | 197° |
| 2026-04-20 00:31 | 45.39378 | -0.38663 | 31608 ft | 451 kts | 196° |
| 2026-04-20 00:32 | 45.36309 | -0.39529 | 31352 ft | 449 kts | 196° |
| 2026-04-20 00:32 | 45.33254 | -0.40386 | 31087 ft | 447 kts | 196° |
| 2026-04-20 00:32 | 45.30209 | -0.41238 | 30828 ft | 445 kts | 196° |
| 2026-04-20 00:32 | 45.27174 | -0.42086 | 30585 ft | 443 kts | 196° |
| 2026-04-20 00:33 | 45.24154 | -0.42929 | 30335 ft | 442 kts | 196° |
| 2026-04-20 00:33 | 45.21141 | -0.43770 | 30080 ft | 440 kts | 196° |
| 2026-04-20 00:33 | 45.18143 | -0.44606 | 29761 ft | 438 kts | 196° |
| 2026-04-20 00:33 | 45.15157 | -0.45437 | 29509 ft | 436 kts | 196° |
| 2026-04-20 00:34 | 45.12191 | -0.46262 | 29225 ft | 434 kts | 196° |
| 2026-04-20 00:34 | 45.09233 | -0.47084 | 28935 ft | 432 kts | 196° |
| 2026-04-20 00:34 | 45.06290 | -0.47902 | 28666 ft | 430 kts | 196° |
| 2026-04-20 00:34 | 45.03353 | -0.48717 | 28389 ft | 429 kts | 196° |
| 2026-04-20 00:35 | 45.00436 | -0.49526 | 28122 ft | 427 kts | 196° |
| 2026-04-20 00:35 | 44.97525 | -0.50333 | 27835 ft | 425 kts | 195° |
| 2026-04-20 00:35 | 44.94627 | -0.51135 | 27570 ft | 423 kts | 195° |
| 2026-04-20 00:35 | 44.91741 | -0.51932 | 27310 ft | 422 kts | 195° |
| 2026-04-20 00:36 | 44.88867 | -0.52726 | 27048 ft | 420 kts | 196° |
| 2026-04-20 00:36 | 44.86006 | -0.53515 | 26792 ft | 419 kts | 196° |
| 2026-04-20 00:36 | 44.83149 | -0.54302 | 26534 ft | 418 kts | 196° |
| 2026-04-20 00:36 | 44.80299 | -0.55087 | 26289 ft | 416 kts | 196° |
| 2026-04-20 00:37 | 44.77472 | -0.55863 | 26010 ft | 411 kts | 196° |
| 2026-04-20 00:37 | 44.74681 | -0.56627 | 25624 ft | 406 kts | 196° |
| 2026-04-20 00:37 | 44.71925 | -0.57380 | 25168 ft | 402 kts | 196° |
| 2026-04-20 00:37 | 44.69185 | -0.58131 | 24695 ft | 400 kts | 196° |
| 2026-04-20 00:38 | 44.66465 | -0.58877 | 24224 ft | 397 kts | 196° |
| 2026-04-20 00:38 | 44.63758 | -0.59619 | 23752 ft | 395 kts | 196° |
| 2026-04-20 00:38 | 44.61069 | -0.60355 | 23223 ft | 392 kts | 196° |
| 2026-04-20 00:38 | 44.58400 | -0.61085 | 22737 ft | 388 kts | 195° |
| 2026-04-20 00:39 | 44.55764 | -0.61804 | 22275 ft | 384 kts | 195° |
| 2026-04-20 00:39 | 44.53154 | -0.62515 | 21802 ft | 381 kts | 195° |
| 2026-04-20 00:39 | 44.50602 | -0.63210 | 21348 ft | 377 kts | 195° |
| 2026-04-20 00:39 | 44.48035 | -0.63909 | 20899 ft | 374 kts | 195° |
| 2026-04-20 00:40 | 44.45487 | -0.64602 | 20437 ft | 371 kts | 195° |
| 2026-04-20 00:40 | 44.42958 | -0.65290 | 19984 ft | 369 kts | 195° |
| 2026-04-20 00:40 | 44.40449 | -0.65972 | 19521 ft | 366 kts | 195° |
| 2026-04-20 00:40 | 44.37954 | -0.66649 | 19075 ft | 364 kts | 195° |
| 2026-04-20 00:41 | 44.35471 | -0.67323 | 18623 ft | 362 kts | 195° |
| 2026-04-20 00:41 | 44.33000 | -0.67992 | 18154 ft | 361 kts | 194° |
| 2026-04-20 00:41 | 44.30545 | -0.68657 | 17678 ft | 358 kts | 194° |
| 2026-04-20 00:41 | 44.28176 | -0.69612 | 17212 ft | 351 kts | 206° |
| 2026-04-20 00:42 | 44.26055 | -0.71210 | 16766 ft | 345 kts | 216° |
| 2026-04-20 00:42 | 44.24057 | -0.73029 | 16313 ft | 342 kts | 217° |
| 2026-04-20 00:42 | 44.22090 | -0.74879 | 15858 ft | 340 kts | 217° |
| 2026-04-20 00:42 | 44.20140 | -0.76725 | 15419 ft | 338 kts | 217° |
| 2026-04-20 00:43 | 44.18208 | -0.78562 | 14989 ft | 336 kts | 217° |
| 2026-04-20 00:43 | 44.16285 | -0.80392 | 14542 ft | 334 kts | 217° |
| 2026-04-20 00:43 | 44.14374 | -0.82211 | 14110 ft | 332 kts | 217° |
| 2026-04-20 00:43 | 44.12472 | -0.84021 | 13652 ft | 330 kts | 217° |
| 2026-04-20 00:44 | 44.11222 | -0.85210 | 13353 ft | 328 kts | 217° |
| 2026-04-20 00:44 | 44.09342 | -0.86997 | 12918 ft | 325 kts | 217° |
| 2026-04-20 00:44 | 44.07483 | -0.88763 | 12487 ft | 322 kts | 217° |
| 2026-04-20 00:44 | 44.05643 | -0.90511 | 12081 ft | 319 kts | 217° |
| 2026-04-20 00:45 | 44.03817 | -0.92243 | 11643 ft | 316 kts | 217° |
| 2026-04-20 00:45 | 44.02009 | -0.93957 | 11216 ft | 314 kts | 217° |
| 2026-04-20 00:45 | 44.00237 | -0.95635 | 11043 ft | 302 kts | 217° |
| 2026-04-20 00:45 | 43.98541 | -0.97237 | 10888 ft | 288 kts | 217° |
| 2026-04-20 00:46 | 43.96917 | -0.98772 | 10768 ft | 278 kts | 217° |
| 2026-04-20 00:46 | 43.95338 | -1.00266 | 10535 ft | 273 kts | 218° |
| 2026-04-20 00:46 | 43.93777 | -1.01743 | 10240 ft | 271 kts | 218° |
| 2026-04-20 00:46 | 43.92226 | -1.03211 | 9929 ft | 270 kts | 218° |
| 2026-04-20 00:47 | 43.90650 | -1.04703 | 9625 ft | 280 kts | 217° |
| 2026-04-20 00:47 | 43.89029 | -1.06236 | 9366 ft | 283 kts | 217° |
| 2026-04-20 00:47 | 43.87400 | -1.07771 | 8990 ft | 283 kts | 217° |
| 2026-04-20 00:47 | 43.85782 | -1.09293 | 8621 ft | 280 kts | 217° |
| 2026-04-20 00:48 | 43.84171 | -1.10809 | 8297 ft | 279 kts | 217° |
| 2026-04-20 00:48 | 43.82568 | -1.12317 | 7977 ft | 278 kts | 216° |
| 2026-04-20 00:48 | 43.80973 | -1.13816 | 7646 ft | 276 kts | 216° |
| 2026-04-20 00:48 | 43.79391 | -1.15303 | 7339 ft | 273 kts | 216° |
| 2026-04-20 00:49 | 43.77827 | -1.16771 | 7019 ft | 271 kts | 215° |
| 2026-04-20 00:49 | 43.76273 | -1.18229 | 6695 ft | 269 kts | 215° |
| 2026-04-20 00:49 | 43.74643 | -1.19490 | 6372 ft | 270 kts | 202° |
| 2026-04-20 00:49 | 43.72827 | -1.20122 | 6035 ft | 269 kts | 192° |
| 2026-04-20 00:50 | 43.70983 | -1.20560 | 5729 ft | 268 kts | 191° |
| 2026-04-20 00:50 | 43.69149 | -1.20984 | 5414 ft | 267 kts | 191° |
| 2026-04-20 00:50 | 43.67325 | -1.21414 | 5094 ft | 266 kts | 192° |
| 2026-04-20 00:50 | 43.65509 | -1.21846 | 4787 ft | 264 kts | 192° |
| 2026-04-20 00:51 | 43.63733 | -1.22271 | 4588 ft | 253 kts | 192° |
| 2026-04-20 00:51 | 43.62043 | -1.22676 | 4464 ft | 241 kts | 191° |
| 2026-04-20 00:51 | 43.60427 | -1.23066 | 4323 ft | 231 kts | 191° |
| 2026-04-20 00:51 | 43.58860 | -1.23443 | 4134 ft | 229 kts | 191° |
| 2026-04-20 00:52 | 43.57289 | -1.23815 | 3885 ft | 229 kts | 191° |
| 2026-04-20 00:52 | 43.55715 | -1.24187 | 3638 ft | 229 kts | 190° |
| 2026-04-20 00:52 | 43.54145 | -1.24559 | 3445 ft | 228 kts | 191° |
| 2026-04-20 00:52 | 43.52572 | -1.24932 | 3417 ft | 230 kts | 190° |
| 2026-04-20 00:53 | 43.50997 | -1.25296 | 3406 ft | 229 kts | 190° |
| 2026-04-20 00:53 | 43.49460 | -1.25654 | 3347 ft | 222 kts | 190° |
| 2026-04-20 00:53 | 43.48073 | -1.26429 | 3207 ft | 208 kts | 223° |
| 2026-04-20 00:53 | 43.47370 | -1.28048 | 3193 ft | 191 kts | 250° |
| 2026-04-20 00:54 | 43.47109 | -1.29735 | 3112 ft | 172 kts | 267° |
| 2026-04-20 00:54 | 43.47124 | -1.31303 | 2936 ft | 156 kts | 268° |
| 2026-04-20 00:54 | 43.47082 | -1.32742 | 2724 ft | 149 kts | 265° |
| 2026-04-20 00:54 | 43.47035 | -1.34117 | 2524 ft | 140 kts | 266° |
| 2026-04-20 00:55 | 43.47011 | -1.35437 | 2500 ft | 139 kts | 269° |
| 2026-04-20 00:55 | 43.47026 | -1.36793 | 2461 ft | 141 kts | 270° |
| 2026-04-20 00:55 | 43.47064 | -1.38183 | 2176 ft | 155 kts | 273° |
| 2026-04-20 00:55 | 43.47097 | -1.39718 | 1760 ft | 158 kts | 269° |
| 2026-04-20 00:56 | 43.46977 | -1.41128 | 1683 ft | 142 kts | 260° |
| 2026-04-20 00:56 | 43.46926 | -1.42467 | 1475 ft | 139 kts | 272° |
| 2026-04-20 00:56 | 43.46983 | -1.43784 | 1294 ft | 138 kts | 274° |
| 2026-04-20 00:56 | 43.46993 | -1.45088 | 1104 ft | 135 kts | 267° |
| 2026-04-20 00:57 | 43.46937 | -1.46379 | 939 ft | 134 kts | 266° |
| 2026-04-20 00:57 | 43.46903 | -1.47649 | 760 ft | 133 kts | 268° |
| 2026-04-20 00:57 | 43.46890 | -1.48895 | 586 ft | 128 kts | 268° |
| 2026-04-20 00:57 | 43.46863 | -1.50135 | 395 ft | 129 kts | 268° |
| 2026-04-20 00:58 | 43.46850 | -1.51373 | 261 ft | 129 kts | 268° |
| 2026-04-20 00:58 | 43.46829 | -1.52562 | 248 ft | 115 kts | 269° |
| 2026-04-20 00:58 | 43.46825 | -1.53196 | 253 ft | 35 kts | 267° |
| 2026-04-20 00:58 | 43.46819 | -1.53512 | 253 ft | 31 kts | 271° |
| 2026-04-20 00:59 | 43.46815 | -1.53675 | 252 ft | 7 kts | 295° |
| 2026-04-20 00:59 | 43.46832 | -1.53677 | 251 ft | 1 kts | 25° |
| 2026-04-20 00:59 | 43.46834 | -1.53673 | 251 ft | 0 kts | 41° |
| 2026-04-20 00:59 | 43.46835 | -1.53664 | 251 ft | 2 kts | 76° |
| 2026-04-20 01:00 | 43.46829 | -1.53601 | 252 ft | 10 kts | 96° |
| 2026-04-20 01:00 | 43.46823 | -1.53501 | 253 ft | 11 kts | 94° |
| 2026-04-20 01:00 | 43.46824 | -1.53395 | 253 ft | 12 kts | 87° |
| 2026-04-20 01:00 | 43.46829 | -1.53275 | 253 ft | 13 kts | 87° |
| 2026-04-20 01:01 | 43.46861 | -1.53167 | 251 ft | 9 kts | 28° |
| 2026-04-20 01:01 | 43.46909 | -1.53171 | 251 ft | 7 kts | 342° |
| 2026-04-20 01:01 | 43.46957 | -1.53198 | 251 ft | 8 kts | 338° |
| 2026-04-20 01:01 | 43.47009 | -1.53195 | 251 ft | 8 kts | 22° |
| 2026-04-20 01:02 | 43.47050 | -1.53143 | 251 ft | 8 kts | 66° |
| 2026-04-20 01:02 | 43.47055 | -1.53073 | 251 ft | 6 kts | 91° |
| 2026-04-20 01:02 | 43.47054 | -1.53027 | 251 ft | 3 kts | 91° |
| 2026-04-20 01:02 | 43.47053 | -1.52986 | 251 ft | 7 kts | 91° |
| 2026-04-20 01:03 | 43.47058 | -1.52940 | 251 ft | 0 kts | 61° |
| 2026-04-20 01:03 | 43.47059 | -1.52938 | 251 ft | 0 kts | 53° |
| 2026-04-20 01:03 | 43.47063 | -1.52936 | 251 ft | 1 kts | 38° |
| 2026-04-20 01:03 | 43.47086 | -1.52927 | 251 ft | 0 kts | 10° |
| 2026-04-20 01:04 | 43.47091 | -1.52926 | 251 ft | 2 kts | 7° |
| 2026-04-20 01:04 | 43.47111 | -1.52924 | 251 ft | 1 kts | 4° |
| 2026-04-20 01:04 | 43.47119 | -1.52924 | 251 ft | 0 kts | 2° |
| 2026-04-20 01:05 | 43.47124 | -1.52924 | 251 ft | 0 kts | 1° |